createdAt,value
2018-05-23T00:02:02.253Z,100681.52
2018-05-23T00:04:29.967Z,100677.83
2018-05-23T00:06:56.753Z,100672.22
2018-05-23T00:09:23.661Z,100671.94
2018-05-23T00:11:52.239Z,100678.55
2018-05-23T00:14:19.026Z,100679.88
2018-05-23T00:16:46.035Z,100687.59
2018-05-23T00:19:12.686Z,100683.30
2018-05-23T00:21:39.366Z,100679.70
2018-05-23T00:24:06.014Z,100681.36
2018-05-23T00:26:32.593Z,100683.75
2018-05-23T00:28:59.443Z,100681.75
2018-05-23T00:31:26.400Z,100677.89
2018-05-23T00:33:57.880Z,100676.90
2018-05-23T00:36:24.462Z,100682.89
2018-05-23T00:38:51.090Z,100686.17
2018-05-23T00:41:18.730Z,100688.50
2018-05-23T00:43:46.630Z,100684.06
2018-05-23T00:46:13.246Z,100687.94
2018-05-23T00:48:40.714Z,100683.17
2018-05-23T00:51:07.308Z,100677.80
2018-05-23T00:53:34.276Z,100675.65
2018-05-23T00:56:01.230Z,100680.77
2018-05-23T00:58:27.819Z,100685.88
2018-05-23T01:00:54.470Z,100681.44
2018-05-23T01:03:21.273Z,100680.86
2018-05-23T01:05:47.893Z,100683.55
2018-05-23T01:08:14.635Z,100686.57
2018-05-23T01:10:41.326Z,100676.90
2018-05-23T01:13:08.264Z,100677.28
2018-05-23T01:15:35.554Z,100679.39
2018-05-23T01:18:02.286Z,100678.70
2018-05-23T01:20:28.886Z,100682.06
2018-05-23T01:23:00.189Z,100680.58
2018-05-23T01:25:26.886Z,100681.48
2018-05-23T01:27:53.533Z,100675.03
2018-05-23T01:30:20.100Z,100674.69
2018-05-23T01:32:53.794Z,100669.56
2018-05-23T01:35:21.015Z,100669.06
2018-05-23T01:37:47.645Z,100670.63
2018-05-23T01:40:14.394Z,100674.81
2018-05-23T01:42:51.750Z,100674.41
2018-05-23T01:45:18.315Z,100677.87
2018-05-23T01:47:44.956Z,100679.14
2018-05-23T01:50:11.569Z,100685.61
2018-05-23T01:52:48.362Z,100686.44
2018-05-23T01:55:15.024Z,100681.02
2018-05-23T01:57:41.584Z,100675.01
2018-05-23T02:00:08.441Z,100674.53
2018-05-23T02:02:38.709Z,100673.33
2018-05-23T02:05:05.363Z,100673.25
2018-05-23T02:07:31.975Z,100677.70
2018-05-23T02:09:58.883Z,100673.23
2018-05-23T02:12:26.742Z,100675.98
2018-05-23T02:14:53.443Z,100673.11
2018-05-23T02:17:20.101Z,100678.69
2018-05-23T02:19:46.701Z,100670.71
2018-05-23T02:22:21.371Z,100670.45
2018-05-23T02:24:48.064Z,100683.19
2018-05-23T02:27:14.713Z,100680.70
2018-05-23T02:29:41.423Z,100674.48
2018-05-23T02:32:13.278Z,100667.95
2018-05-23T02:34:39.927Z,100678.05
2018-05-23T02:37:06.794Z,100668.19
2018-05-23T02:39:33.410Z,100673.08
2018-05-23T02:41:59.909Z,100677.75
2018-05-23T02:44:26.989Z,100690.88
2018-05-23T02:46:53.635Z,100686.16
2018-05-23T02:49:20.289Z,100687.70
2018-05-23T02:51:46.948Z,100689.46
2018-05-23T02:54:14.750Z,100682.66
2018-05-23T02:56:41.466Z,100682.28
2018-05-23T02:59:08.053Z,100686.87
2018-05-23T03:01:34.758Z,100688.06
2018-05-23T03:04:02.541Z,100687.72
2018-05-23T03:06:29.187Z,100686.67
2018-05-23T03:08:55.823Z,100683.92
2018-05-23T03:11:22.366Z,100687.02
2018-05-23T03:13:59.509Z,100694.18
2018-05-23T03:16:26.042Z,100692.80
2018-05-23T03:18:52.756Z,100695.84
2018-05-23T03:21:19.438Z,100691.84
2018-05-23T03:23:51.681Z,100688.47
2018-05-23T03:26:18.331Z,100694.92
2018-05-23T03:28:45.013Z,100698.73
2018-05-23T03:31:11.621Z,100698.95
2018-05-23T03:33:42.288Z,100702.75
2018-05-23T03:36:08.951Z,100703.19
2018-05-23T03:38:35.425Z,100707.28
2018-05-23T03:41:02.026Z,100716.89
2018-05-23T03:43:33.608Z,100704.70
2018-05-23T03:46:00.328Z,100712.33
2018-05-23T03:48:27.085Z,100711.97
2018-05-23T03:50:53.616Z,100715.13
2018-05-23T03:53:44.285Z,100713.81
2018-05-23T03:56:11.242Z,100717.54
2018-05-23T03:58:37.897Z,100713.05
2018-05-23T04:01:16.420Z,100710.46
2018-05-23T04:03:58.601Z,100711.78
2018-05-23T04:06:33.812Z,100709.49
2018-05-23T04:09:00.486Z,100706.68
2018-05-23T04:11:27.052Z,100701.12
2018-05-23T04:14:03.704Z,100705.28
2018-05-23T04:16:30.313Z,100702.56
2018-05-23T04:18:56.974Z,100702.73
2018-05-23T04:21:23.421Z,100705.14
2018-05-23T04:23:57.010Z,100704.52
2018-05-23T04:26:23.673Z,100704.95
2018-05-23T04:28:50.392Z,100713.34
2018-05-23T04:31:16.999Z,100713.88
2018-05-23T04:33:54.693Z,100713.17
2018-05-23T04:36:21.466Z,100721.73
2018-05-23T04:38:48.122Z,100719.69
2018-05-23T04:41:14.733Z,100730.47
2018-05-23T04:43:45.836Z,100725.61
2018-05-23T04:46:12.513Z,100726.11
2018-05-23T04:48:39.283Z,100722.49
2018-05-23T04:51:06.004Z,100724.02
2018-05-23T04:53:36.979Z,100725.92
2018-05-23T04:56:03.530Z,100736.23
2018-05-23T04:58:30.097Z,100731.58
2018-05-23T05:00:57.054Z,100733.95
2018-05-23T05:03:29.814Z,100733.20
2018-05-23T05:05:56.705Z,100736.34
2018-05-23T05:11:16.653Z,100728.57
2018-05-23T05:13:47.089Z,100726.67
2018-05-23T05:16:13.608Z,100720.64
2018-05-23T05:18:40.145Z,100721.05
2018-05-23T05:21:06.796Z,100708.22
2018-05-23T05:23:37.448Z,100707.31
2018-05-23T05:26:04.391Z,100707.36
2018-05-23T05:28:31.073Z,100709.89
2018-05-23T05:30:57.829Z,100699.20
2018-05-23T05:33:25.518Z,100703.30
2018-05-23T05:35:52.261Z,100702.39
2018-05-23T05:38:18.955Z,100704.80
2018-05-23T05:40:45.704Z,100709.12
2018-05-23T05:43:13.481Z,100704.61
2018-05-23T05:45:40.975Z,100709.23
2018-05-23T05:48:07.644Z,100712.29
2018-05-23T05:50:34.189Z,100711.16
2018-05-23T05:53:05.873Z,100712.27
2018-05-23T05:55:32.613Z,100722.30
2018-05-23T05:57:59.621Z,100720.32
2018-05-23T06:00:26.268Z,100725.15
2018-05-23T06:03:03.685Z,100721.26
2018-05-23T06:05:30.224Z,100724.09
2018-05-23T06:07:56.697Z,100724.26
2018-05-23T06:10:23.394Z,100732.55
2018-05-23T06:12:55.621Z,100728.13
2018-05-23T06:15:22.443Z,100735.12
2018-05-23T06:17:49.270Z,100729.84
2018-05-23T06:20:15.916Z,100733.16
2018-05-23T06:22:43.737Z,100735.13
2018-05-23T06:25:10.243Z,100736.81
2018-05-23T06:27:36.977Z,100732.34
2018-05-23T06:30:03.546Z,100730.21
2018-05-23T06:32:30.758Z,100732.80
2018-05-23T06:34:57.641Z,100730.76
2018-05-23T06:37:24.224Z,100727.73
2018-05-23T06:39:50.939Z,100724.45
2018-05-23T06:42:17.853Z,100719.30
2018-05-23T06:44:44.521Z,100718.59
2018-05-23T06:47:11.525Z,100709.24
2018-05-23T06:49:38.189Z,100710.30
2018-05-23T06:52:08.198Z,100708.53
2018-05-23T06:54:34.995Z,100705.90
2018-05-23T06:57:02.795Z,100704.28
2018-05-23T06:59:29.652Z,100707.46
2018-05-23T07:01:59.781Z,100712.13
2018-05-23T07:04:26.365Z,100708.05
2018-05-23T07:06:52.908Z,100709.02
2018-05-23T07:09:19.573Z,100710.96
2018-05-23T07:11:50.485Z,100709.73
2018-05-23T07:14:17.135Z,100705.53
2018-05-23T07:16:43.764Z,100709.13
2018-05-23T07:19:10.252Z,100707.13
2018-05-23T07:21:36.901Z,100711.58
2018-05-23T07:24:03.749Z,100709.01
2018-05-23T07:26:30.342Z,100710.38
2018-05-23T07:28:57.941Z,100714.74
2018-05-23T07:31:28.903Z,100715.11
2018-05-23T07:33:55.615Z,100716.42
2018-05-23T07:36:22.325Z,100710.06
2018-05-23T07:38:48.989Z,100715.78
2018-05-23T07:41:15.672Z,100717.16
2018-05-23T07:43:42.563Z,100715.69
2018-05-23T07:46:09.188Z,100714.31
2018-05-23T07:48:35.818Z,100715.34
2018-05-23T07:51:02.631Z,100713.31
2018-05-23T07:53:30.526Z,100705.81
2018-05-23T07:55:57.085Z,100714.45
2018-05-23T07:58:23.730Z,100716.17
2018-05-23T08:00:50.314Z,100720.08
2018-05-23T08:03:20.105Z,100723.48
2018-05-23T08:05:46.756Z,100723.23
2018-05-23T08:08:13.595Z,100723.23
2018-05-23T08:10:40.723Z,100722.58
2018-05-23T08:13:08.702Z,100726.32
2018-05-23T08:15:35.643Z,100731.05
2018-05-23T08:18:02.264Z,100719.59
2018-05-23T08:20:29.009Z,100719.64
2018-05-23T08:23:06.140Z,100727.12
2018-05-23T08:25:33.153Z,100723.83
2018-05-23T08:27:59.785Z,100725.45
2018-05-23T08:30:26.366Z,100715.57
2018-05-23T08:32:53.168Z,100727.53
2018-05-23T08:35:19.838Z,100729.30
2018-05-23T08:37:46.338Z,100733.34
2018-05-23T08:40:13.317Z,100732.70
2018-05-23T08:42:45.193Z,100728.44
2018-05-23T08:45:11.920Z,100724.70
2018-05-23T08:47:38.679Z,100726.78
2018-05-23T08:50:05.349Z,100718.83
2018-05-23T08:52:33.132Z,100713.33
2018-05-23T08:54:59.765Z,100720.43
2018-05-23T08:57:26.371Z,100722.94
2018-05-23T08:59:52.857Z,100726.05
2018-05-23T09:02:19.894Z,100719.85
2018-05-23T09:04:46.525Z,100718.34
2018-05-23T09:07:13.218Z,100714.70
2018-05-23T09:09:39.713Z,100709.55
2018-05-23T09:12:07.672Z,100709.70
2018-05-23T09:14:34.450Z,100711.45
2018-05-23T09:17:01.098Z,100707.65
2018-05-23T09:19:27.848Z,100699.72
2018-05-23T09:21:55.750Z,100697.84
2018-05-23T09:24:22.706Z,100700.87
2018-05-23T09:26:52.565Z,100700.99
2018-05-23T09:29:19.617Z,100695.89
2018-05-23T09:31:46.525Z,100694.33
2018-05-23T09:34:13.514Z,100685.72
2018-05-23T09:36:40.236Z,100686.38
2018-05-23T09:39:07.497Z,100694.19
2018-05-23T09:41:34.609Z,100696.36
2018-05-23T09:44:01.710Z,100691.99
2018-05-23T09:46:28.245Z,100690.58
2018-05-23T09:48:54.816Z,100685.93
2018-05-23T09:51:26.174Z,100677.06
2018-05-23T09:53:52.961Z,100682.19
2018-05-23T09:56:19.683Z,100679.35
2018-05-23T09:58:46.560Z,100679.12
2018-05-23T10:01:20.840Z,100660.22
2018-05-23T10:03:47.598Z,100668.02
2018-05-23T10:06:14.376Z,100674.92
2018-05-23T10:08:41.010Z,100665.44
2018-05-23T10:11:21.919Z,100661.67
2018-05-23T10:13:48.709Z,100667.72
2018-05-23T10:16:15.441Z,100664.81
2018-05-23T10:18:42.094Z,100663.48
2018-05-23T10:21:12.639Z,100654.10
2018-05-23T10:23:39.565Z,100662.80
2018-05-23T10:26:06.194Z,100651.11
2018-05-23T10:28:32.903Z,100653.57
2018-05-23T10:31:03.605Z,100653.08
2018-05-23T10:33:30.406Z,100650.91
2018-05-23T10:35:57.082Z,100647.31
2018-05-23T10:38:24.313Z,100643.23
2018-05-23T10:40:51.175Z,100644.37
2018-05-23T10:43:17.981Z,100644.53
2018-05-23T10:45:45.247Z,100639.15
2018-05-23T10:48:12.093Z,100635.48
2018-05-23T10:50:38.751Z,100634.92
2018-05-23T10:53:15.710Z,100636.05
2018-05-23T10:55:42.649Z,100630.08
2018-05-23T10:58:09.363Z,100633.06
2018-05-23T11:00:36.080Z,100629.00
2018-05-23T11:03:06.689Z,100628.64
2018-05-23T11:05:33.343Z,100628.22
2018-05-23T11:07:59.962Z,100618.41
2018-05-23T11:10:27.099Z,100616.50
2018-05-23T11:13:00.294Z,100614.28
2018-05-23T11:15:26.858Z,100610.36
2018-05-23T11:17:53.372Z,100612.94
2018-05-23T11:20:20.038Z,100612.44
2018-05-23T11:22:50.720Z,100608.52
2018-05-23T11:25:17.346Z,100609.63
2018-05-23T11:27:44.262Z,100608.65
2018-05-23T11:30:10.838Z,100603.58
2018-05-23T11:32:38.571Z,100606.45
2018-05-23T11:35:05.153Z,100606.44
2018-05-23T11:37:32.001Z,100608.61
2018-05-23T11:39:58.907Z,100605.91
2018-05-23T11:42:30.246Z,100607.01
2018-05-23T11:44:56.879Z,100613.95
2018-05-23T11:47:23.878Z,100617.27
2018-05-23T11:49:51.018Z,100611.19
2018-05-23T11:52:21.557Z,100608.25
2018-05-23T11:54:48.798Z,100605.63
2018-05-23T11:57:15.460Z,100601.57
2018-05-23T11:59:42.107Z,100595.56
2018-05-23T12:02:13.110Z,100594.97
2018-05-23T12:04:39.704Z,100597.75
2018-05-23T12:07:06.788Z,100600.03
2018-05-23T12:09:33.433Z,100585.45
2018-05-23T12:12:07.347Z,100581.79
2018-05-23T12:14:34.052Z,100588.90
2018-05-23T12:17:00.768Z,100578.89
2018-05-23T12:19:27.482Z,100583.59
2018-05-23T12:21:54.365Z,100588.34
2018-05-23T12:24:21.376Z,100572.41
2018-05-23T12:26:48.106Z,100580.35
2018-05-23T12:29:15.006Z,100578.75
2018-05-23T12:31:42.705Z,100581.19
2018-05-23T12:34:09.405Z,100577.38
2018-05-23T12:36:36.199Z,100564.30
2018-05-23T12:39:02.906Z,100569.58
2018-05-23T12:41:30.762Z,100560.97
2018-05-23T12:43:57.489Z,100557.25
2018-05-23T12:46:24.188Z,100559.69
2018-05-23T12:48:50.833Z,100566.23
2018-05-23T12:51:17.453Z,100560.24
2018-05-23T12:53:44.073Z,100560.69
2018-05-23T12:56:10.715Z,100562.41
2018-05-23T12:58:37.276Z,100556.45
2018-05-23T13:01:04.892Z,100555.92
2018-05-23T13:03:31.569Z,100548.62
2018-05-23T13:05:58.157Z,100549.33
2018-05-23T13:08:24.688Z,100551.30
2018-05-23T13:10:56.332Z,100549.37
2018-05-23T13:13:22.942Z,100555.22
2018-05-23T13:15:49.615Z,100545.05
2018-05-23T13:18:16.277Z,100548.97
2018-05-23T13:20:44.151Z,100545.08
2018-05-23T13:23:10.868Z,100545.70
2018-05-23T13:25:37.506Z,100551.78
2018-05-23T13:28:04.018Z,100554.89
2018-05-23T13:30:33.822Z,100553.89
2018-05-23T13:33:00.392Z,100542.58
2018-05-23T13:35:27.369Z,100539.04
2018-05-23T13:37:54.189Z,100540.91
2018-05-23T13:40:20.860Z,100528.67
2018-05-23T13:42:47.981Z,100536.88
2018-05-23T13:45:14.610Z,100528.79
2018-05-23T13:47:41.333Z,100527.31
2018-05-23T13:50:07.958Z,100521.45
2018-05-23T13:52:40.584Z,100519.55
2018-05-23T13:55:07.226Z,100516.98
2018-05-23T13:57:34.010Z,100509.02
2018-05-23T14:00:00.837Z,100509.88
2018-05-23T14:02:33.644Z,100515.02
2018-05-23T14:05:00.320Z,100502.86
2018-05-23T14:07:27.066Z,100499.23
2018-05-23T14:09:53.722Z,100497.83
2018-05-23T14:12:27.692Z,100496.78
2018-05-23T14:14:54.388Z,100500.99
2018-05-23T14:17:21.010Z,100500.88
2018-05-23T14:19:47.717Z,100496.03
2018-05-23T14:22:15.436Z,100494.22
2018-05-23T14:24:42.435Z,100480.52
2018-05-23T14:27:09.121Z,100478.73
2018-05-23T14:29:35.833Z,100472.03
2018-05-23T14:32:06.040Z,100462.84
2018-05-23T14:34:32.551Z,100456.31
2018-05-23T14:36:59.217Z,100459.92
2018-05-23T14:39:25.771Z,100463.56
2018-05-23T14:41:53.579Z,100455.57
2018-05-23T14:44:20.374Z,100455.55
2018-05-23T14:46:47.289Z,100449.02
2018-05-23T14:49:13.999Z,100450.27
2018-05-23T14:51:48.058Z,100445.23
2018-05-23T14:54:14.724Z,100444.75
2018-05-23T14:56:41.450Z,100446.01
2018-05-23T14:59:08.390Z,100447.88
2018-05-23T15:01:38.216Z,100431.40
2018-05-23T15:04:05.088Z,100433.31
2018-05-23T15:06:31.702Z,100438.47
2018-05-23T15:08:58.377Z,100434.95
2018-05-23T15:11:26.053Z,100429.02
2018-05-23T15:13:52.691Z,100440.86
2018-05-23T15:16:19.409Z,100430.70
2018-05-23T15:18:46.122Z,100431.16
2018-05-23T15:21:16.338Z,100426.96
2018-05-23T15:23:43.010Z,100429.41
2018-05-23T15:26:10.286Z,100427.20
2018-05-23T15:28:36.936Z,100427.03
2018-05-23T15:31:04.055Z,100436.24
2018-05-23T15:33:30.882Z,100444.59
2018-05-23T15:35:57.941Z,100446.33
2018-05-23T15:38:24.494Z,100436.94
2018-05-23T15:40:51.282Z,100438.06
2018-05-23T15:43:18.108Z,100433.37
2018-05-23T15:45:44.673Z,100447.84
2018-05-23T15:48:11.306Z,100448.73
2018-05-23T15:50:39.103Z,100451.73
2018-05-23T15:53:05.794Z,100443.23
2018-05-23T15:55:32.553Z,100453.41
2018-05-23T15:57:59.938Z,100460.30
2018-05-23T16:00:30.465Z,100455.34
2018-05-23T16:02:57.228Z,100458.43
2018-05-23T16:05:24.110Z,100463.22
2018-05-23T16:07:50.786Z,100456.06
2018-05-23T16:10:19.030Z,100438.31
2018-05-23T16:12:45.615Z,100441.81
2018-05-23T16:15:12.649Z,100441.99
2018-05-23T16:17:39.332Z,100448.53
2018-05-23T16:20:09.055Z,100456.09
2018-05-23T16:22:35.625Z,100459.89
2018-05-23T16:25:02.145Z,100462.36
2018-05-23T16:27:28.807Z,100468.48
2018-05-23T16:30:01.809Z,100475.73
2018-05-23T16:32:28.410Z,100477.98
2018-05-23T16:34:55.109Z,100478.36
2018-05-23T16:37:22.073Z,100473.92
2018-05-23T16:39:48.718Z,100475.78
2018-05-23T16:42:15.705Z,100486.12
2018-05-23T16:44:42.658Z,100482.40
2018-05-23T16:47:09.209Z,100487.67
2018-05-23T16:49:35.935Z,100482.30
2018-05-23T16:52:03.716Z,100476.45
2018-05-23T16:54:30.400Z,100479.34
2018-05-23T16:56:57.049Z,100476.89
2018-05-23T16:59:23.745Z,100475.80
2018-05-23T17:01:55.420Z,100476.65
2018-05-23T17:04:22.154Z,100470.21
2018-05-23T17:06:48.785Z,100473.29
2018-05-23T17:09:15.324Z,100474.20
2018-05-23T17:11:45.475Z,100471.17
2018-05-23T17:14:12.202Z,100466.43
2018-05-23T17:16:38.722Z,100472.26
2018-05-23T17:19:05.443Z,100462.22
2018-05-23T17:21:35.906Z,100473.14
2018-05-23T17:24:02.737Z,100471.87
2018-05-23T17:26:29.694Z,100469.70
2018-05-23T17:28:56.346Z,100473.91
2018-05-23T17:31:23.031Z,100475.12
2018-05-23T17:33:49.761Z,100471.95
2018-05-23T17:36:16.450Z,100471.80
2018-05-23T17:38:43.086Z,100473.97
2018-05-23T17:41:10.906Z,100473.81
2018-05-23T17:43:37.558Z,100480.84
2018-05-23T17:46:04.227Z,100475.85
2018-05-23T17:48:30.826Z,100473.25
2018-05-23T17:51:00.896Z,100475.26
2018-05-23T17:53:27.885Z,100465.91
2018-05-23T17:55:54.566Z,100461.55
2018-05-23T17:58:21.278Z,100459.18
2018-05-23T18:00:49.207Z,100461.85
2018-05-23T18:03:15.705Z,100460.50
2018-05-23T18:05:42.376Z,100457.36
2018-05-23T18:08:09.158Z,100465.55
2018-05-23T18:10:39.318Z,100470.89
2018-05-23T18:13:05.925Z,100469.20
2018-05-23T18:15:32.953Z,100465.97
2018-05-23T18:18:00.729Z,100464.95
2018-05-23T18:20:28.655Z,100473.38
2018-05-23T18:22:55.587Z,100472.50
2018-05-23T18:25:22.539Z,100466.32
2018-05-23T18:27:49.270Z,100461.67
2018-05-23T18:30:15.790Z,100452.56
2018-05-23T18:32:42.972Z,100456.42
2018-05-23T18:35:09.476Z,100459.12
2018-05-23T18:37:36.170Z,100461.94
2018-05-23T18:40:06.760Z,100460.17
2018-05-23T18:42:33.530Z,100454.67
2018-05-23T18:45:00.289Z,100462.03
2018-05-23T18:47:26.843Z,100459.25
2018-05-23T18:49:56.756Z,100454.00
2018-05-23T18:52:23.442Z,100464.52
2018-05-23T18:54:50.114Z,100466.81
2018-05-23T18:57:16.822Z,100465.61
2018-05-23T18:59:44.741Z,100464.08
2018-05-23T19:02:11.446Z,100464.10
2018-05-23T19:04:38.097Z,100460.98
2018-05-23T19:07:04.767Z,100458.02
2018-05-23T19:09:31.555Z,100455.92
2018-05-23T19:11:58.292Z,100455.45
2018-05-23T19:14:25.010Z,100460.23
2018-05-23T19:16:51.834Z,100457.67
2018-05-23T19:19:18.488Z,100462.63
2018-05-23T19:21:45.317Z,100456.34
2018-05-23T19:24:11.951Z,100451.61
2018-05-23T19:26:38.662Z,100452.43
2018-05-23T19:29:05.315Z,100449.98
2018-05-23T19:31:35.796Z,100453.95
2018-05-23T19:34:02.752Z,100453.44
2018-05-23T19:36:29.464Z,100452.12
2018-05-23T19:38:56.286Z,100460.61
2018-05-23T19:41:24.173Z,100456.11
2018-05-23T19:43:50.857Z,100457.94
2018-05-23T19:46:17.697Z,100458.23
2018-05-23T19:48:44.897Z,100459.66
2018-05-23T19:51:15.616Z,100461.22
2018-05-23T19:53:42.357Z,100447.78
2018-05-23T19:56:09.633Z,100445.06
2018-05-23T19:58:36.236Z,100446.39
2018-05-23T20:01:06.972Z,100443.05
2018-05-23T20:03:33.838Z,100443.83
2018-05-23T20:06:00.548Z,100441.02
2018-05-23T20:08:27.275Z,100442.48
2018-05-23T20:10:55.982Z,100438.09
2018-05-23T20:13:22.646Z,100441.99
2018-05-23T20:15:50.090Z,100442.52
2018-05-23T20:18:17.167Z,100438.08
2018-05-23T20:20:43.981Z,100432.73
2018-05-23T20:23:17.426Z,100439.95
2018-05-23T20:25:50.297Z,100430.74
2018-05-23T20:28:23.554Z,100437.34
2018-05-23T20:30:59.855Z,100429.98
2018-05-23T20:33:33.316Z,100445.47
2018-05-23T20:36:06.575Z,100447.30
2018-05-23T20:38:39.461Z,100445.17
2018-05-23T20:41:14.817Z,100445.19
2018-05-23T20:43:48.482Z,100443.05
2018-05-23T20:46:21.226Z,100442.33
2018-05-23T20:48:54.466Z,100445.75
2018-05-23T20:51:31.154Z,100451.86
2018-05-23T20:54:03.833Z,100450.05
2018-05-23T20:56:37.443Z,100454.66
2018-05-23T20:59:10.804Z,100455.69
2018-05-23T21:01:44.238Z,100462.55
2018-05-23T21:04:17.742Z,100459.05
2018-05-23T21:06:51.059Z,100448.11
2018-05-23T21:09:28.325Z,100450.24
2018-05-23T21:12:02.002Z,100452.91
2018-05-23T21:14:34.967Z,100444.98
2018-05-23T21:17:08.430Z,100442.92
2018-05-23T21:19:44.802Z,100438.62
2018-05-23T21:22:17.918Z,100433.14
2018-05-23T21:24:52.505Z,100427.22
2018-05-23T21:27:25.806Z,100424.73
2018-05-23T21:30:06.597Z,100421.70
2018-05-23T21:32:39.831Z,100431.73
2018-05-23T21:35:13.421Z,100427.25
2018-05-23T21:37:46.311Z,100418.03
2018-05-23T21:40:20.756Z,100412.45
2018-05-23T21:42:54.167Z,100413.62
2018-05-23T21:45:27.132Z,100414.95
2018-05-23T21:48:00.157Z,100409.78
2018-05-23T21:50:33.410Z,100405.12
2018-05-23T21:53:06.238Z,100406.78
2018-05-23T21:55:40.013Z,100397.59
2018-05-23T21:58:12.626Z,100395.86
2018-05-23T22:00:46.257Z,100391.22
2018-05-23T22:03:19.644Z,100385.91
2018-05-23T22:05:53.597Z,100377.91
2018-05-23T22:08:26.825Z,100381.86
2018-05-23T22:11:00.408Z,100380.80
2018-05-23T22:13:33.054Z,100378.91
2018-05-23T22:16:06.414Z,100375.55
2018-05-23T22:18:39.862Z,100367.26
2018-05-23T22:21:12.761Z,100364.43
2018-05-23T22:23:45.972Z,100364.73
2018-05-23T22:26:19.478Z,100357.59
2018-05-23T22:28:52.157Z,100355.49
2018-05-23T22:31:24.839Z,100358.02
2018-05-23T22:33:57.456Z,100362.37
2018-05-23T22:36:30.994Z,100366.00
2018-05-23T22:39:04.572Z,100363.70
2018-05-23T22:41:38.570Z,100358.02
2018-05-23T22:44:11.350Z,100357.86
2018-05-23T22:46:44.859Z,100346.39
2018-05-23T22:49:21.904Z,100358.05
2018-05-23T22:51:54.969Z,100348.61
2018-05-23T22:54:28.318Z,100351.23
2018-05-23T22:57:02.332Z,100361.08
2018-05-23T22:59:36.196Z,100359.30
2018-05-23T23:02:09.063Z,100361.73
2018-05-23T23:04:42.306Z,100358.92
2018-05-23T23:07:15.458Z,100355.47
2018-05-23T23:09:48.898Z,100358.28
2018-05-23T23:12:21.596Z,100361.52
2018-05-23T23:14:54.405Z,100359.39
2018-05-23T23:17:28.220Z,100358.99
2018-05-23T23:20:02.503Z,100353.29
2018-05-23T23:22:38.037Z,100355.15
2018-05-23T23:25:11.497Z,100358.14
2018-05-23T23:27:44.933Z,100363.21
2018-05-23T23:30:21.404Z,100356.14
2018-05-23T23:32:54.683Z,100367.25
2018-05-23T23:35:28.911Z,100353.98
2018-05-23T23:38:02.374Z,100358.11
2018-05-23T23:40:35.692Z,100356.36
2018-05-23T23:43:08.736Z,100354.66
2018-05-23T23:45:42.338Z,100355.06
2018-05-23T23:48:15.877Z,100352.84
2018-05-23T23:50:49.357Z,100352.16
2018-05-23T23:53:22.113Z,100351.63
2018-05-23T23:55:55.026Z,100353.64
2018-05-23T23:58:28.656Z,100348.73
